Dawson Community Airport
KGDV : now visible

Airfield :











YOU CAN JOIN US ON...

 
LOGIN :

Register | Disclaimer

   EN    FR    IT 

 









Legend :    VFR   Marginal VFR   IFR   Intensive IFR   Very Intensive IFR
Visi :
Ceiling :
>= 8 km
>= 3000ft
5 to 8 km
1000 to 3000 ft
1500m to 5 km
500 to 1000 ft
800 to 1500m
200 to 500 ft
< 800m
< 200 ft
Symbols :   Thunderstorms  Fog  Heavy snow  Heavy precipitations  Wind > 20 kt






- Airport Elevation : 2458 ft


KGDV - Dawson Community

CURRENT METAR :
  • 080656Z AUTO 03010KT 10SM BKN095 OVC110 03/M01 A2971 RMK AO2 SLP073 T00281006 401171011

EXPIRED METARs :
  • 080556Z AUTO 33006KT 10SM FEW065 OVC100 02/M01 A2972 RMK AO2 RAB34E48 SLP078 P0000 60000 T00221011 10050 20017 53007 FZRANO
  • 080456Z AUTO 34007KT 10SM OVC095 03/M01 A2970 RMK AO2 SLP077 T00331011

TAF KGDV
Valid from the 08 at 06:00 until the 09 at 06:00 UTC


080524Z 0806/0906 VRB06KT P6SM OVC050
FM080700 36009KT P6SM VCSH OVC010
TEMPO 0813/0814 2SM -FZDZSN OVC006
FM081500 02013KT 3/4SM -FZDZSN OVC005
FM081700 02015G24KT 1/4SM +SN BLSN OVC007
FM090000 35009KT 2SM -SN OVC010



MET'MAP, your aeronautical weather chart ! - Copyright ORBIFLY December 2007 - Disclaimer

ORBIFLY MET'MAP TEAM :

Programming & Development : Alexandra Zaïnal
Concept & original design : Baudouin d'Aumeries
Assistance for programming : Marc-Olivier Méhu
Technical & hardware support : Manuel Goepfert

Contact : metmap@orbifly.com




SOURCES & CREDITS :

   NOAA       Earth
Advisory